sensor_id;sensor_type;location;lat;lon;timestamp;P1;durP1;ratioP1;P2;durP2;ratioP2
34236;SDS011;20501;45.956;13.632;2023-04-29T00:01:33;3.53;;;2.47;;
34236;SDS011;20501;45.956;13.632;2023-04-29T00:03:59;9.25;;;2.80;;
34236;SDS011;20501;45.956;13.632;2023-04-29T00:06:24;5.40;;;2.78;;
34236;SDS011;20501;45.956;13.632;2023-04-29T00:08:50;8.63;;;3.08;;
34236;SDS011;20501;45.956;13.632;2023-04-29T00:11:16;5.75;;;2.80;;
34236;SDS011;20501;45.956;13.632;2023-04-29T00:13:41;3.90;;;2.38;;
34236;SDS011;20501;45.956;13.632;2023-04-29T00:16:07;5.20;;;2.60;;
34236;SDS011;20501;45.956;13.632;2023-04-29T00:18:34;4.53;;;2.70;;
34236;SDS011;20501;45.956;13.632;2023-04-29T00:21:00;6.03;;;2.57;;
34236;SDS011;20501;45.956;13.632;2023-04-29T00:23:26;5.18;;;2.60;;
34236;SDS011;20501;45.956;13.632;2023-04-29T00:25:51;3.63;;;2.13;;
34236;SDS011;20501;45.956;13.632;2023-04-29T00:28:17;6.60;;;2.58;;
34236;SDS011;20501;45.956;13.632;2023-04-29T00:30:43;5.53;;;2.88;;
34236;SDS011;20501;45.956;13.632;2023-04-29T00:33:08;5.55;;;2.45;;
34236;SDS011;20501;45.956;13.632;2023-04-29T00:35:34;3.25;;;2.50;;
34236;SDS011;20501;45.956;13.632;2023-04-29T00:37:59;3.42;;;2.08;;
34236;SDS011;20501;45.956;13.632;2023-04-29T00:40:26;3.83;;;2.40;;
34236;SDS011;20501;45.956;13.632;2023-04-29T00:42:52;6.15;;;2.40;;
34236;SDS011;20501;45.956;13.632;2023-04-29T00:45:17;5.15;;;1.95;;
34236;SDS011;20501;45.956;13.632;2023-04-29T00:47:43;2.80;;;2.33;;
34236;SDS011;20501;45.956;13.632;2023-04-29T00:50:08;4.05;;;2.55;;
34236;SDS011;20501;45.956;13.632;2023-04-29T00:52:34;5.63;;;2.50;;
34236;SDS011;20501;45.956;13.632;2023-04-29T00:55:02;5.05;;;2.60;;
34236;SDS011;20501;45.956;13.632;2023-04-29T00:57:30;3.88;;;2.90;;
34236;SDS011;20501;45.956;13.632;2023-04-29T00:59:56;4.90;;;2.83;;
34236;SDS011;20501;45.956;13.632;2023-04-29T01:04:49;5.63;;;2.80;;
34236;SDS011;20501;45.956;13.632;2023-04-29T01:07:20;5.25;;;2.88;;
34236;SDS011;20501;45.956;13.632;2023-04-29T01:10:27;6.00;;;2.50;;
34236;SDS011;20501;45.956;13.632;2023-04-29T01:12:57;3.78;;;2.65;;
34236;SDS011;20501;45.956;13.632;2023-04-29T01:15:33;3.75;;;2.45;;
34236;SDS011;20501;45.956;13.632;2023-04-29T01:18:24;4.53;;;2.50;;
34236;SDS011;20501;45.956;13.632;2023-04-29T01:20:54;4.28;;;2.58;;
34236;SDS011;20501;45.956;13.632;2023-04-29T01:23:25;3.72;;;2.58;;
34236;SDS011;20501;45.956;13.632;2023-04-29T01:25:51;2.30;;;2.00;;
34236;SDS011;20501;45.956;13.632;2023-04-29T01:28:29;4.38;;;2.20;;
34236;SDS011;20501;45.956;13.632;2023-04-29T01:31:35;4.72;;;2.60;;
34236;SDS011;20501;45.956;13.632;2023-04-29T01:34:13;6.47;;;2.58;;
34236;SDS011;20501;45.956;13.632;2023-04-29T01:44:56;2.78;;;2.10;;
34236;SDS011;20501;45.956;13.632;2023-04-29T01:47:24;4.28;;;1.77;;
34236;SDS011;20501;45.956;13.632;2023-04-29T01:49:51;5.47;;;2.30;;
34236;SDS011;20501;45.956;13.632;2023-04-29T01:52:16;5.13;;;2.40;;
34236;SDS011;20501;45.956;13.632;2023-04-29T01:54:42;4.55;;;2.40;;
34236;SDS011;20501;45.956;13.632;2023-04-29T01:57:08;4.22;;;2.53;;
34236;SDS011;20501;45.956;13.632;2023-04-29T01:59:33;4.97;;;2.10;;
34236;SDS011;20501;45.956;13.632;2023-04-29T02:01:59;4.50;;;2.30;;
34236;SDS011;20501;45.956;13.632;2023-04-29T02:04:24;2.58;;;2.00;;
34236;SDS011;20501;45.956;13.632;2023-04-29T02:06:50;4.50;;;2.30;;
34236;SDS011;20501;45.956;13.632;2023-04-29T02:09:18;5.40;;;2.38;;
34236;SDS011;20501;45.956;13.632;2023-04-29T02:11:44;9.02;;;2.72;;
34236;SDS011;20501;45.956;13.632;2023-04-29T02:14:09;2.97;;;2.20;;
34236;SDS011;20501;45.956;13.632;2023-04-29T02:16:36;2.50;;;1.98;;
34236;SDS011;20501;45.956;13.632;2023-04-29T02:19:02;3.53;;;2.50;;
34236;SDS011;20501;45.956;13.632;2023-04-29T02:21:27;4.93;;;2.47;;
34236;SDS011;20501;45.956;13.632;2023-04-29T02:23:53;5.15;;;2.28;;
34236;SDS011;20501;45.956;13.632;2023-04-29T02:26:19;5.18;;;2.10;;
34236;SDS011;20501;45.956;13.632;2023-04-29T02:28:44;4.25;;;2.10;;
34236;SDS011;20501;45.956;13.632;2023-04-29T02:31:10;2.92;;;2.15;;
34236;SDS011;20501;45.956;13.632;2023-04-29T02:33:36;3.63;;;2.75;;
34236;SDS011;20501;45.956;13.632;2023-04-29T02:36:01;3.28;;;2.15;;
34236;SDS011;20501;45.956;13.632;2023-04-29T02:38:27;3.72;;;2.38;;
34236;SDS011;20501;45.956;13.632;2023-04-29T02:40:52;2.67;;;2.08;;
34236;SDS011;20501;45.956;13.632;2023-04-29T02:43:18;5.90;;;2.20;;
34236;SDS011;20501;45.956;13.632;2023-04-29T02:45:43;2.67;;;1.98;;
34236;SDS011;20501;45.956;13.632;2023-04-29T02:48:08;2.75;;;2.22;;
34236;SDS011;20501;45.956;13.632;2023-04-29T02:50:34;3.53;;;2.17;;
34236;SDS011;20501;45.956;13.632;2023-04-29T02:52:59;2.22;;;1.83;;
34236;SDS011;20501;45.956;13.632;2023-04-29T02:55:25;6.25;;;2.42;;
34236;SDS011;20501;45.956;13.632;2023-04-29T02:57:51;2.90;;;2.05;;
34236;SDS011;20501;45.956;13.632;2023-04-29T03:00:16;3.58;;;2.10;;
34236;SDS011;20501;45.956;13.632;2023-04-29T03:02:42;3.53;;;2.55;;
34236;SDS011;20501;45.956;13.632;2023-04-29T03:05:08;3.53;;;2.30;;
34236;SDS011;20501;45.956;13.632;2023-04-29T03:07:34;6.20;;;2.10;;
34236;SDS011;20501;45.956;13.632;2023-04-29T03:09:59;6.03;;;2.20;;
34236;SDS011;20501;45.956;13.632;2023-04-29T03:12:25;3.83;;;2.47;;
34236;SDS011;20501;45.956;13.632;2023-04-29T03:14:51;5.40;;;2.38;;
34236;SDS011;20501;45.956;13.632;2023-04-29T03:17:16;4.05;;;2.22;;
34236;SDS011;20501;45.956;13.632;2023-04-29T03:19:42;4.53;;;2.75;;
34236;SDS011;20501;45.956;13.632;2023-04-29T03:22:08;3.28;;;2.38;;
34236;SDS011;20501;45.956;13.632;2023-04-29T03:24:35;6.65;;;2.72;;
34236;SDS011;20501;45.956;13.632;2023-04-29T03:27:01;4.07;;;2.50;;
34236;SDS011;20501;45.956;13.632;2023-04-29T03:29:28;5.95;;;2.15;;
34236;SDS011;20501;45.956;13.632;2023-04-29T03:31:54;4.45;;;2.65;;
34236;SDS011;20501;45.956;13.632;2023-04-29T03:34:21;3.58;;;2.53;;
34236;SDS011;20501;45.956;13.632;2023-04-29T03:36:46;5.72;;;2.63;;
34236;SDS011;20501;45.956;13.632;2023-04-29T03:39:12;5.70;;;2.35;;
34236;SDS011;20501;45.956;13.632;2023-04-29T03:41:37;2.50;;;1.90;;
34236;SDS011;20501;45.956;13.632;2023-04-29T03:44:03;3.30;;;2.22;;
34236;SDS011;20501;45.956;13.632;2023-04-29T03:46:29;3.65;;;2.00;;
34236;SDS011;20501;45.956;13.632;2023-04-29T03:48:55;3.17;;;2.40;;
34236;SDS011;20501;45.956;13.632;2023-04-29T03:51:23;3.35;;;2.03;;
34236;SDS011;20501;45.956;13.632;2023-04-29T03:53:49;3.22;;;2.20;;
34236;SDS011;20501;45.956;13.632;2023-04-29T03:56:17;3.03;;;1.85;;
34236;SDS011;20501;45.956;13.632;2023-04-29T03:58:42;3.20;;;2.05;;
34236;SDS011;20501;45.956;13.632;2023-04-29T04:01:08;3.95;;;2.25;;
34236;SDS011;20501;45.956;13.632;2023-04-29T04:03:33;4.05;;;2.10;;
34236;SDS011;20501;45.956;13.632;2023-04-29T04:05:59;3.65;;;2.45;;
34236;SDS011;20501;45.956;13.632;2023-04-29T04:08:25;4.15;;;2.08;;
34236;SDS011;20501;45.956;13.632;2023-04-29T04:10:50;4.88;;;2.45;;
34236;SDS011;20501;45.956;13.632;2023-04-29T04:13:16;5.82;;;2.25;;
34236;SDS011;20501;45.956;13.632;2023-04-29T04:15:41;3.38;;;2.40;;
34236;SDS011;20501;45.956;13.632;2023-04-29T04:18:07;2.60;;;2.13;;
34236;SDS011;20501;45.956;13.632;2023-04-29T04:20:35;3.65;;;2.40;;
34236;SDS011;20501;45.956;13.632;2023-04-29T04:23:01;4.13;;;2.95;;
34236;SDS011;20501;45.956;13.632;2023-04-29T04:25:26;3.85;;;2.67;;
34236;SDS011;20501;45.956;13.632;2023-04-29T04:27:52;6.45;;;3.03;;
34236;SDS011;20501;45.956;13.632;2023-04-29T04:30:18;4.18;;;2.70;;
34236;SDS011;20501;45.956;13.632;2023-04-29T04:32:43;3.03;;;2.28;;
34236;SDS011;20501;45.956;13.632;2023-04-29T04:35:09;4.63;;;2.50;;
34236;SDS011;20501;45.956;13.632;2023-04-29T04:37:34;5.55;;;2.15;;
34236;SDS011;20501;45.956;13.632;2023-04-29T04:40:00;3.50;;;2.22;;
34236;SDS011;20501;45.956;13.632;2023-04-29T04:42:26;4.05;;;2.53;;
34236;SDS011;20501;45.956;13.632;2023-04-29T04:44:51;5.97;;;2.33;;
34236;SDS011;20501;45.956;13.632;2023-04-29T04:47:17;5.13;;;2.47;;
34236;SDS011;20501;45.956;13.632;2023-04-29T04:49:43;2.88;;;2.20;;
34236;SDS011;20501;45.956;13.632;2023-04-29T04:52:08;7.03;;;2.10;;
34236;SDS011;20501;45.956;13.632;2023-04-29T04:54:34;6.38;;;2.33;;
34236;SDS011;20501;45.956;13.632;2023-04-29T04:56:59;4.68;;;2.60;;
34236;SDS011;20501;45.956;13.632;2023-04-29T04:59:25;3.55;;;2.15;;
34236;SDS011;20501;45.956;13.632;2023-04-29T05:01:50;5.68;;;2.47;;
34236;SDS011;20501;45.956;13.632;2023-04-29T05:04:16;3.22;;;2.50;;
34236;SDS011;20501;45.956;13.632;2023-04-29T05:06:41;4.07;;;2.75;;
34236;SDS011;20501;45.956;13.632;2023-04-29T05:09:06;3.70;;;2.50;;
34236;SDS011;20501;45.956;13.632;2023-04-29T05:11:32;3.53;;;1.92;;
34236;SDS011;20501;45.956;13.632;2023-04-29T05:13:57;3.67;;;2.42;;
34236;SDS011;20501;45.956;13.632;2023-04-29T05:16:23;4.82;;;2.13;;
34236;SDS011;20501;45.956;13.632;2023-04-29T05:18:48;4.20;;;2.42;;
34236;SDS011;20501;45.956;13.632;2023-04-29T05:21:13;5.45;;;2.75;;
34236;SDS011;20501;45.956;13.632;2023-04-29T05:23:39;3.92;;;2.40;;
34236;SDS011;20501;45.956;13.632;2023-04-29T05:26:04;3.70;;;2.30;;
34236;SDS011;20501;45.956;13.632;2023-04-29T05:28:30;5.53;;;2.55;;
34236;SDS011;20501;45.956;13.632;2023-04-29T05:30:55;4.93;;;2.75;;
34236;SDS011;20501;45.956;13.632;2023-04-29T05:33:21;6.15;;;2.53;;
34236;SDS011;20501;45.956;13.632;2023-04-29T05:35:46;4.82;;;2.50;;
34236;SDS011;20501;45.956;13.632;2023-04-29T05:38:12;3.60;;;2.65;;
34236;SDS011;20501;45.956;13.632;2023-04-29T05:40:37;8.43;;;2.90;;
34236;SDS011;20501;45.956;13.632;2023-04-29T05:43:02;4.10;;;2.78;;
34236;SDS011;20501;45.956;13.632;2023-04-29T05:45:28;3.78;;;2.50;;
34236;SDS011;20501;45.956;13.632;2023-04-29T05:47:53;6.70;;;3.13;;
34236;SDS011;20501;45.956;13.632;2023-04-29T05:50:19;6.97;;;3.25;;
34236;SDS011;20501;45.956;13.632;2023-04-29T05:52:44;3.70;;;2.60;;
34236;SDS011;20501;45.956;13.632;2023-04-29T05:55:10;7.85;;;2.42;;
34236;SDS011;20501;45.956;13.632;2023-04-29T05:57:35;6.88;;;2.90;;
34236;SDS011;20501;45.956;13.632;2023-04-29T06:00:01;3.55;;;2.38;;
34236;SDS011;20501;45.956;13.632;2023-04-29T06:02:27;7.18;;;2.70;;
34236;SDS011;20501;45.956;13.632;2023-04-29T06:04:53;7.53;;;3.10;;
34236;SDS011;20501;45.956;13.632;2023-04-29T06:07:18;5.43;;;3.20;;
34236;SDS011;20501;45.956;13.632;2023-04-29T06:09:44;4.50;;;2.70;;
34236;SDS011;20501;45.956;13.632;2023-04-29T06:12:10;5.88;;;2.88;;
34236;SDS011;20501;45.956;13.632;2023-04-29T06:14:35;4.72;;;2.60;;
34236;SDS011;20501;45.956;13.632;2023-04-29T06:17:01;3.72;;;2.75;;
34236;SDS011;20501;45.956;13.632;2023-04-29T06:19:26;6.53;;;3.42;;
34236;SDS011;20501;45.956;13.632;2023-04-29T06:21:52;5.00;;;2.72;;
34236;SDS011;20501;45.956;13.632;2023-04-29T06:24:17;4.88;;;2.75;;
34236;SDS011;20501;45.956;13.632;2023-04-29T06:26:43;4.28;;;2.75;;
34236;SDS011;20501;45.956;13.632;2023-04-29T06:29:08;4.13;;;2.90;;
34236;SDS011;20501;45.956;13.632;2023-04-29T06:31:33;7.20;;;3.50;;
34236;SDS011;20501;45.956;13.632;2023-04-29T06:33:59;3.78;;;2.80;;
34236;SDS011;20501;45.956;13.632;2023-04-29T06:36:24;5.18;;;3.13;;
34236;SDS011;20501;45.956;13.632;2023-04-29T06:38:51;6.60;;;3.85;;
34236;SDS011;20501;45.956;13.632;2023-04-29T06:41:16;16.70;;;9.48;;
34236;SDS011;20501;45.956;13.632;2023-04-29T06:43:42;4.82;;;3.10;;
34236;SDS011;20501;45.956;13.632;2023-04-29T06:46:07;7.85;;;3.20;;
34236;SDS011;20501;45.956;13.632;2023-04-29T06:48:33;4.03;;;2.72;;
34236;SDS011;20501;45.956;13.632;2023-04-29T06:50:59;6.47;;;3.42;;
34236;SDS011;20501;45.956;13.632;2023-04-29T06:53:24;4.13;;;2.78;;
34236;SDS011;20501;45.956;13.632;2023-04-29T06:55:50;4.97;;;3.20;;
34236;SDS011;20501;45.956;13.632;2023-04-29T06:58:16;3.88;;;2.50;;
34236;SDS011;20501;45.956;13.632;2023-04-29T07:00:45;4.35;;;2.83;;
34236;SDS011;20501;45.956;13.632;2023-04-29T07:03:12;6.78;;;2.88;;
34236;SDS011;20501;45.956;13.632;2023-04-29T07:05:38;5.80;;;2.78;;
34236;SDS011;20501;45.956;13.632;2023-04-29T07:08:06;4.22;;;3.00;;
34236;SDS011;20501;45.956;13.632;2023-04-29T07:10:32;6.97;;;2.30;;
34236;SDS011;20501;45.956;13.632;2023-04-29T07:12:57;3.47;;;2.40;;
34236;SDS011;20501;45.956;13.632;2023-04-29T07:15:24;3.25;;;2.45;;
34236;SDS011;20501;45.956;13.632;2023-04-29T07:17:51;4.55;;;2.55;;
34236;SDS011;20501;45.956;13.632;2023-04-29T07:20:16;5.25;;;2.60;;
34236;SDS011;20501;45.956;13.632;2023-04-29T07:22:42;8.38;;;2.35;;
34236;SDS011;20501;45.956;13.632;2023-04-29T07:25:07;3.95;;;2.42;;
34236;SDS011;20501;45.956;13.632;2023-04-29T07:30:00;5.50;;;2.28;;
34236;SDS011;20501;45.956;13.632;2023-04-29T07:32:25;3.15;;;2.25;;
34236;SDS011;20501;45.956;13.632;2023-04-29T07:34:51;2.90;;;2.20;;
34236;SDS011;20501;45.956;13.632;2023-04-29T07:37:17;5.05;;;2.80;;
34236;SDS011;20501;45.956;13.632;2023-04-29T07:39:43;4.18;;;2.30;;
34236;SDS011;20501;45.956;13.632;2023-04-29T07:42:08;3.97;;;2.28;;
34236;SDS011;20501;45.956;13.632;2023-04-29T07:44:34;7.10;;;2.50;;
34236;SDS011;20501;45.956;13.632;2023-04-29T07:47:00;3.08;;;2.15;;
34236;SDS011;20501;45.956;13.632;2023-04-29T07:49:25;2.88;;;1.95;;
34236;SDS011;20501;45.956;13.632;2023-04-29T07:51:51;3.50;;;2.20;;
34236;SDS011;20501;45.956;13.632;2023-04-29T07:54:16;3.83;;;2.13;;
34236;SDS011;20501;45.956;13.632;2023-04-29T07:56:44;3.50;;;2.40;;
34236;SDS011;20501;45.956;13.632;2023-04-29T07:59:12;4.35;;;2.33;;
34236;SDS011;20501;45.956;13.632;2023-04-29T08:01:39;4.32;;;2.30;;
34236;SDS011;20501;45.956;13.632;2023-04-29T08:04:05;2.97;;;2.10;;
34236;SDS011;20501;45.956;13.632;2023-04-29T08:06:31;7.20;;;2.45;;
34236;SDS011;20501;45.956;13.632;2023-04-29T08:08:57;6.82;;;2.72;;
34236;SDS011;20501;45.956;13.632;2023-04-29T08:11:22;3.58;;;2.40;;
34236;SDS011;20501;45.956;13.632;2023-04-29T08:13:49;2.83;;;2.20;;
34236;SDS011;20501;45.956;13.632;2023-04-29T08:16:15;3.50;;;2.25;;
34236;SDS011;20501;45.956;13.632;2023-04-29T08:18:40;6.35;;;2.45;;
34236;SDS011;20501;45.956;13.632;2023-04-29T08:21:06;3.38;;;2.45;;
34236;SDS011;20501;45.956;13.632;2023-04-29T08:23:33;8.57;;;2.88;;
34236;SDS011;20501;45.956;13.632;2023-04-29T08:25:59;9.97;;;2.40;;
34236;SDS011;20501;45.956;13.632;2023-04-29T08:28:25;3.78;;;2.35;;
34236;SDS011;20501;45.956;13.632;2023-04-29T08:30:51;3.78;;;2.22;;
34236;SDS011;20501;45.956;13.632;2023-04-29T08:33:17;4.38;;;2.30;;
34236;SDS011;20501;45.956;13.632;2023-04-29T08:35:42;5.40;;;2.65;;
34236;SDS011;20501;45.956;13.632;2023-04-29T08:38:08;2.38;;;2.10;;
34236;SDS011;20501;45.956;13.632;2023-04-29T08:40:43;3.58;;;2.15;;
34236;SDS011;20501;45.956;13.632;2023-04-29T08:43:13;3.35;;;2.15;;
34236;SDS011;20501;45.956;13.632;2023-04-29T08:45:41;3.63;;;2.60;;
34236;SDS011;20501;45.956;13.632;2023-04-29T08:48:08;2.95;;;2.03;;
34236;SDS011;20501;45.956;13.632;2023-04-29T08:50:37;5.07;;;2.78;;
34236;SDS011;20501;45.956;13.632;2023-04-29T08:53:05;3.95;;;2.17;;
34236;SDS011;20501;45.956;13.632;2023-04-29T08:55:34;5.35;;;2.30;;
34236;SDS011;20501;45.956;13.632;2023-04-29T08:58:02;2.50;;;1.95;;
34236;SDS011;20501;45.956;13.632;2023-04-29T09:00:29;5.53;;;2.30;;
34236;SDS011;20501;45.956;13.632;2023-04-29T09:02:56;6.25;;;2.33;;
34236;SDS011;20501;45.956;13.632;2023-04-29T09:05:24;8.88;;;2.92;;
34236;SDS011;20501;45.956;13.632;2023-04-29T09:07:51;6.10;;;2.20;;
34236;SDS011;20501;45.956;13.632;2023-04-29T09:10:17;6.30;;;2.50;;
34236;SDS011;20501;45.956;13.632;2023-04-29T09:12:43;5.25;;;2.50;;
34236;SDS011;20501;45.956;13.632;2023-04-29T09:15:10;3.63;;;2.47;;
34236;SDS011;20501;45.956;13.632;2023-04-29T09:20:32;7.60;;;2.40;;
34236;SDS011;20501;45.956;13.632;2023-04-29T09:22:59;8.75;;;2.33;;
34236;SDS011;20501;45.956;13.632;2023-04-29T09:25:27;6.22;;;2.20;;
34236;SDS011;20501;45.956;13.632;2023-04-29T09:27:53;8.82;;;2.83;;
34236;SDS011;20501;45.956;13.632;2023-04-29T09:30:19;6.73;;;2.40;;
34236;SDS011;20501;45.956;13.632;2023-04-29T09:32:45;4.40;;;2.60;;
34236;SDS011;20501;45.956;13.632;2023-04-29T09:35:28;4.68;;;2.20;;
34236;SDS011;20501;45.956;13.632;2023-04-29T09:38:06;6.15;;;2.70;;
34236;SDS011;20501;45.956;13.632;2023-04-29T09:40:36;4.40;;;2.25;;
34236;SDS011;20501;45.956;13.632;2023-04-29T09:43:02;6.65;;;2.40;;
34236;SDS011;20501;45.956;13.632;2023-04-29T09:48:03;4.50;;;2.30;;
34236;SDS011;20501;45.956;13.632;2023-04-29T09:50:30;3.83;;;2.40;;
34236;SDS011;20501;45.956;13.632;2023-04-29T09:52:56;3.95;;;2.40;;
34236;SDS011;20501;45.956;13.632;2023-04-29T09:55:22;6.13;;;2.30;;
34236;SDS011;20501;45.956;13.632;2023-04-29T09:57:48;5.82;;;2.25;;
34236;SDS011;20501;45.956;13.632;2023-04-29T10:00:13;8.10;;;2.50;;
34236;SDS011;20501;45.956;13.632;2023-04-29T10:02:42;4.70;;;2.72;;
34236;SDS011;20501;45.956;13.632;2023-04-29T10:05:16;3.03;;;2.30;;
34236;SDS011;20501;45.956;13.632;2023-04-29T10:07:43;7.80;;;2.88;;
34236;SDS011;20501;45.956;13.632;2023-04-29T10:10:10;5.15;;;2.72;;
34236;SDS011;20501;45.956;13.632;2023-04-29T10:20:44;5.28;;;2.90;;
34236;SDS011;20501;45.956;13.632;2023-04-29T10:23:11;7.55;;;2.92;;
34236;SDS011;20501;45.956;13.632;2023-04-29T10:25:38;5.07;;;2.42;;
34236;SDS011;20501;45.956;13.632;2023-04-29T10:28:06;5.20;;;3.10;;
34236;SDS011;20501;45.956;13.632;2023-04-29T10:30:38;5.75;;;2.80;;
34236;SDS011;20501;45.956;13.632;2023-04-29T10:33:06;5.45;;;2.45;;
34236;SDS011;20501;45.956;13.632;2023-04-29T10:35:33;5.90;;;2.60;;
34236;SDS011;20501;45.956;13.632;2023-04-29T10:37:59;5.45;;;2.20;;
34236;SDS011;20501;45.956;13.632;2023-04-29T10:40:30;5.22;;;2.45;;
34236;SDS011;20501;45.956;13.632;2023-04-29T10:43:05;5.88;;;2.60;;
34236;SDS011;20501;45.956;13.632;2023-04-29T10:45:31;4.30;;;2.42;;
34236;SDS011;20501;45.956;13.632;2023-04-29T10:50:33;5.35;;;2.67;;
34236;SDS011;20501;45.956;13.632;2023-04-29T10:53:04;7.40;;;3.30;;
34236;SDS011;20501;45.956;13.632;2023-04-29T10:55:29;9.85;;;3.13;;
34236;SDS011;20501;45.956;13.632;2023-04-29T10:57:56;3.85;;;2.83;;
34236;SDS011;20501;45.956;13.632;2023-04-29T11:00:25;4.93;;;2.87;;
34236;SDS011;20501;45.956;13.632;2023-04-29T11:02:55;5.03;;;3.17;;
34236;SDS011;20501;45.956;13.632;2023-04-29T11:05:28;7.22;;;2.78;;
34236;SDS011;20501;45.956;13.632;2023-04-29T11:08:10;8.23;;;2.83;;
34236;SDS011;20501;45.956;13.632;2023-04-29T11:10:37;3.17;;;2.40;;
34236;SDS011;20501;45.956;13.632;2023-04-29T11:13:24;9.35;;;3.15;;
34236;SDS011;20501;45.956;13.632;2023-04-29T11:15:52;10.57;;;3.65;;
34236;SDS011;20501;45.956;13.632;2023-04-29T11:18:18;6.03;;;3.40;;
34236;SDS011;20501;45.956;13.632;2023-04-29T11:23:39;9.52;;;3.05;;
34236;SDS011;20501;45.956;13.632;2023-04-29T11:26:06;4.80;;;3.15;;
34236;SDS011;20501;45.956;13.632;2023-04-29T11:28:32;6.40;;;3.25;;
34236;SDS011;20501;45.956;13.632;2023-04-29T11:30:58;9.27;;;3.53;;
34236;SDS011;20501;45.956;13.632;2023-04-29T11:33:25;13.23;;;4.57;;
34236;SDS011;20501;45.956;13.632;2023-04-29T11:35:51;14.98;;;4.22;;
34236;SDS011;20501;45.956;13.632;2023-04-29T11:38:27;9.63;;;3.85;;
34236;SDS011;20501;45.956;13.632;2023-04-29T11:40:54;8.73;;;4.00;;
34236;SDS011;20501;45.956;13.632;2023-04-29T11:43:21;4.78;;;3.08;;
34236;SDS011;20501;45.956;13.632;2023-04-29T11:45:47;7.97;;;3.83;;
34236;SDS011;20501;45.956;13.632;2023-04-29T11:48:17;5.68;;;3.42;;
34236;SDS011;20501;45.956;13.632;2023-04-29T11:50:46;9.95;;;3.55;;
34236;SDS011;20501;45.956;13.632;2023-04-29T11:53:14;5.57;;;3.50;;
34236;SDS011;20501;45.956;13.632;2023-04-29T11:55:43;9.55;;;4.13;;
34236;SDS011;20501;45.956;13.632;2023-04-29T11:58:09;6.22;;;3.63;;
34236;SDS011;20501;45.956;13.632;2023-04-29T12:00:35;7.35;;;3.85;;
34236;SDS011;20501;45.956;13.632;2023-04-29T12:03:00;7.80;;;3.88;;
34236;SDS011;20501;45.956;13.632;2023-04-29T12:05:26;7.18;;;3.38;;
34236;SDS011;20501;45.956;13.632;2023-04-29T12:07:53;7.85;;;3.85;;
34236;SDS011;20501;45.956;13.632;2023-04-29T12:10:19;5.60;;;3.20;;
34236;SDS011;20501;45.956;13.632;2023-04-29T12:12:45;6.20;;;3.35;;
34236;SDS011;20501;45.956;13.632;2023-04-29T12:15:12;11.00;;;3.75;;
34236;SDS011;20501;45.956;13.632;2023-04-29T12:17:38;9.00;;;5.23;;
34236;SDS011;20501;45.956;13.632;2023-04-29T12:20:05;9.23;;;3.90;;
34236;SDS011;20501;45.956;13.632;2023-04-29T12:22:33;6.60;;;3.47;;
34236;SDS011;20501;45.956;13.632;2023-04-29T12:25:01;6.47;;;3.53;;
34236;SDS011;20501;45.956;13.632;2023-04-29T12:27:28;11.85;;;3.88;;
34236;SDS011;20501;45.956;13.632;2023-04-29T12:29:55;10.05;;;3.78;;
34236;SDS011;20501;45.956;13.632;2023-04-29T12:32:23;7.35;;;4.30;;
34236;SDS011;20501;45.956;13.632;2023-04-29T12:34:49;9.23;;;3.70;;
34236;SDS011;20501;45.956;13.632;2023-04-29T12:37:21;7.80;;;3.90;;
34236;SDS011;20501;45.956;13.632;2023-04-29T12:39:48;10.82;;;4.40;;
34236;SDS011;20501;45.956;13.632;2023-04-29T12:42:14;8.38;;;3.70;;
34236;SDS011;20501;45.956;13.632;2023-04-29T12:44:43;7.85;;;4.30;;
34236;SDS011;20501;45.956;13.632;2023-04-29T12:47:09;10.63;;;5.07;;
34236;SDS011;20501;45.956;13.632;2023-04-29T12:49:37;11.93;;;5.32;;
34236;SDS011;20501;45.956;13.632;2023-04-29T12:52:06;10.85;;;4.68;;
34236;SDS011;20501;45.956;13.632;2023-04-29T12:54:35;6.72;;;4.18;;
34236;SDS011;20501;45.956;13.632;2023-04-29T12:57:01;8.80;;;4.53;;
34236;SDS011;20501;45.956;13.632;2023-04-29T12:59:27;13.73;;;5.07;;
34236;SDS011;20501;45.956;13.632;2023-04-29T13:01:52;9.80;;;4.95;;
34236;SDS011;20501;45.956;13.632;2023-04-29T13:04:18;12.95;;;5.53;;
34236;SDS011;20501;45.956;13.632;2023-04-29T13:06:43;7.20;;;4.18;;
34236;SDS011;20501;45.956;13.632;2023-04-29T13:09:09;8.43;;;4.57;;
34236;SDS011;20501;45.956;13.632;2023-04-29T13:14:02;11.00;;;5.10;;
34236;SDS011;20501;45.956;13.632;2023-04-29T13:16:28;7.38;;;3.90;;
34236;SDS011;20501;45.956;13.632;2023-04-29T13:18:53;10.48;;;4.15;;
34236;SDS011;20501;45.956;13.632;2023-04-29T13:21:19;9.18;;;4.60;;
34236;SDS011;20501;45.956;13.632;2023-04-29T13:23:44;12.73;;;5.03;;
34236;SDS011;20501;45.956;13.632;2023-04-29T13:26:10;7.60;;;4.88;;
34236;SDS011;20501;45.956;13.632;2023-04-29T13:28:36;9.02;;;5.00;;
34236;SDS011;20501;45.956;13.632;2023-04-29T13:31:01;11.38;;;4.93;;
34236;SDS011;20501;45.956;13.632;2023-04-29T13:33:27;11.38;;;5.88;;
34236;SDS011;20501;45.956;13.632;2023-04-29T13:35:52;10.90;;;6.35;;
34236;SDS011;20501;45.956;13.632;2023-04-29T13:38:17;19.08;;;6.55;;
34236;SDS011;20501;45.956;13.632;2023-04-29T13:40:43;11.90;;;6.07;;
34236;SDS011;20501;45.956;13.632;2023-04-29T13:43:08;7.13;;;4.85;;
34236;SDS011;20501;45.956;13.632;2023-04-29T13:45:34;10.95;;;4.70;;
34236;SDS011;20501;45.956;13.632;2023-04-29T13:48:02;7.30;;;4.20;;
34236;SDS011;20501;45.956;13.632;2023-04-29T13:50:27;7.18;;;4.68;;
34236;SDS011;20501;45.956;13.632;2023-04-29T13:52:53;6.78;;;3.75;;
34236;SDS011;20501;45.956;13.632;2023-04-29T13:55:18;7.32;;;3.38;;
34236;SDS011;20501;45.956;13.632;2023-04-29T13:57:45;6.40;;;4.07;;
34236;SDS011;20501;45.956;13.632;2023-04-29T14:00:13;8.65;;;4.00;;
34236;SDS011;20501;45.956;13.632;2023-04-29T14:02:40;12.85;;;4.43;;
34236;SDS011;20501;45.956;13.632;2023-04-29T14:05:05;8.85;;;5.05;;
34236;SDS011;20501;45.956;13.632;2023-04-29T14:07:31;8.02;;;4.30;;
34236;SDS011;20501;45.956;13.632;2023-04-29T14:09:56;7.65;;;3.53;;
34236;SDS011;20501;45.956;13.632;2023-04-29T14:12:22;8.80;;;3.55;;
34236;SDS011;20501;45.956;13.632;2023-04-29T14:14:47;7.13;;;2.92;;
34236;SDS011;20501;45.956;13.632;2023-04-29T14:17:13;5.75;;;3.25;;
34236;SDS011;20501;45.956;13.632;2023-04-29T14:19:38;5.93;;;3.00;;
34236;SDS011;20501;45.956;13.632;2023-04-29T14:22:04;5.65;;;3.20;;
34236;SDS011;20501;45.956;13.632;2023-04-29T14:24:29;7.60;;;2.80;;
34236;SDS011;20501;45.956;13.632;2023-04-29T14:26:55;7.90;;;3.58;;
34236;SDS011;20501;45.956;13.632;2023-04-29T14:29:21;14.65;;;3.60;;
34236;SDS011;20501;45.956;13.632;2023-04-29T14:31:47;4.78;;;3.40;;
34236;SDS011;20501;45.956;13.632;2023-04-29T14:34:13;4.95;;;3.08;;
34236;SDS011;20501;45.956;13.632;2023-04-29T14:36:38;6.18;;;3.22;;
34236;SDS011;20501;45.956;13.632;2023-04-29T14:39:04;13.15;;;4.18;;
34236;SDS011;20501;45.956;13.632;2023-04-29T14:41:30;7.75;;;3.33;;
34236;SDS011;20501;45.956;13.632;2023-04-29T14:43:55;5.43;;;2.90;;
34236;SDS011;20501;45.956;13.632;2023-04-29T14:46:21;14.35;;;3.33;;
34236;SDS011;20501;45.956;13.632;2023-04-29T14:48:47;6.87;;;3.07;;
34236;SDS011;20501;45.956;13.632;2023-04-29T14:51:12;6.55;;;2.95;;
34236;SDS011;20501;45.956;13.632;2023-04-29T14:53:38;5.00;;;3.28;;
34236;SDS011;20501;45.956;13.632;2023-04-29T14:56:03;4.85;;;2.90;;
34236;SDS011;20501;45.956;13.632;2023-04-29T14:58:29;3.88;;;2.67;;
34236;SDS011;20501;45.956;13.632;2023-04-29T15:00:55;4.10;;;2.50;;
34236;SDS011;20501;45.956;13.632;2023-04-29T15:03:21;9.38;;;3.10;;
34236;SDS011;20501;45.956;13.632;2023-04-29T15:05:46;7.78;;;3.22;;